Saint Germain, Wisconsin
Current Conditions -  °F | °C
As of 6:35 PM on Monday 24 Nov 2014 (Local Time) from KEGV Reporting Station
Moderate Snow Moderate Snow  
Wind Chill:   Ceiling: 800
Heat Index: 21°   Visibility: 0.75mi
Dew Point: 18°   Wind: 14mph
Humidity: 86%   Direction: 350°N
Pressure: 29.43"   Gusts: 25mph
Location:  45.9°N, 89.49°W
Report Text: KEGV 250035Z AUTO 35012G22KT 3/4SM SN BKN008 M06/M08 A2943 RMK AO2 T10601080
Loading
Personal Weather Stations






























Interactive Weather Map New forecast layout! Learn more

10-Day Weather Forecast

Advertisements
Track Severe Weather on mobile